Portada
METAR-TAF:

METAR-TAF

Aeropuertos :

Aeropuerto de Inukjuak

Inukjuak, Quebec, Canadá

latitud: 58-28N, longitud: 078-05W, altitud: 25 m

Observación

El informe se hizo hace 16 minutos, a las 12:52 UTC
Viento 15 kt del este-sureste
Temperatura -26°C
Humedad 76%
Presión 1025 hPa
Visibilidad: 14.5 km
Cielo despejado

METAR: CYPH 101252Z AUTO 11015KT 9SM CLR M26/M29 A3026 RMK PRESFR SLP251

Hora: 08:08 (13:08 UTC)

Pronóstico

El informe se hizo hace 1 hora y 30 minutos, a las 11:38 UTC
Pronóstico válido del 10 a las 12 UTC al 10 a las 24 UTC
Viento 8 kt del este-noreste
Visibilidad: 10 km
Nubes dispersas a una altura de 13000 ft

TAF: CYPH 101138Z 1012/1024 06008KT P6SM SCT130 RMK FCST BASED ON AUTO OBS. NXT FCST BY 101800Z

Observaciones y pronósticos meteorológicos de más de 4000 aeropuertos (mensajes METAR y TAF).

Los puntos amarillos y rojos representan las estaciones disponibles.

Ponga el ratón en el punto deseado para ver el nombre de la estación.

Haga clic para ver las observaciones y los pronósticos meteorológicos.

Para cambiar el mapa : haga clic en los botones verdes con una cruz de color negro para hacer un zoom, en el botón verde con un guión para alejar o en las flechas verdes para mapas adyacentes.


METAR-TAF: